SEASEATTLE-TACOMA INTL
METARs for airports near SEA, sorted by distance:
N 0 nm 432' KSEA 042253Z 34010KT 10SM FEW050 28/13 A3004
NE 4 nm 32' KRNT 042253Z 33010KT 8SM CLR 27/14 A3002
N 4 nm 21' KBFI 042253Z 33008G15KT 280V350 10SM CLR 27/12 A3002
SW 15 nm 294' KTIW 042253Z 03007G14KT 340V080 10SM FEW030 26/13 A3003
W 18 nm 444' KPWT 042256Z 05006KT 10SM CLR 27/16 A3004
S 19 nm 322' KTCM 042258Z 03010KT 10SM CLR 28/13 A3003
S 20 nm 537' KPLU 042255Z VRB03KT 10SM CLR 28/13 A3004
SW 24 nm 301' KGRF 042158Z 33006KT 10SM CLR 28/18 A3004
N 27 nm 607' KPAE 042253Z 35005KT 10SM CLR 25/16 A3006
W 36 nm 272' KSHN 042253Z 23006KT 10SM FEW060 28/15 A3000
SW 37 nm 207' KOLM 042254Z VRB04KT 10SM FEW055 28/13 A3003
N 43 nm 141' KAWO 042256Z 30009KT 10SM 27/17 A3003
SW 53 nm 177' KCLS 042255Z 03010KT 10SM CLR 30/15 A3002
N 55 nm 47' KNUW 042256Z 28005KT 10SM FEW035 18/12 A3008
NW 60 nm 13' KNOW 042250Z 29011KT 10SM CLR A3006
N 61 nm 145' KBVS 042255Z 30011KT 9SM CLR 26/16 A3003
NW 62 nm 291' KCLM 042253Z 30006KT 10SM CLR 20/13 A3007
NW 70 nm 112' KFHR 042253Z 23005KT 10SM CLR 25/15 A3004
SW 72 nm 17' KHQM 042253Z 26011KT 10SM CLR 21/16 A3007
E 76 nm 1763' KELN 042253Z 19004KT 10SM CLR 32/03 A2998
N 79 nm 34' KORS 042255Z 33004KT 10SM CLR 22/16 A3003
N 81 nm 171' KBLI 042253Z 34006KT 10SM CLR 26/15 A3003
S 83 nm 20' KKLS 042256Z 32005KT CLR 30/15 A2999
NW 84 nm 64' CYYJ 042200Z 09006KT 080V160 30SM FEW035 25/14 A3005
E 85 nm 1248' KEAT 042255Z 11008KT 10SM CLR 32/07 A2994
SE 89 nm 1098' KYKM 042253Z 10005KT 10SM CLR 32/09 A2995
W 95 nm 193' KUIL 042253Z 30009KT 10SM CLR 22/14 A3008
TAFs for airports near SEA, sorted by distance:
N 0 nm 432' KSEA KSEA 042101Z 0421/0524 35008KT P6SM FEW040
  FM051200 VRB04KT P6SM SCT015
  FM051700 23004KT P6SM BKN250
N 4 nm 21' KBFI KBFI 041729Z 0418/0518 VRB04KT P6SM SCT015
  FM041900 34008KT P6SM SKC
  FM051200 VRB04KT P6SM SCT015
W 18 nm 444' KPWT TAF KPWT 041729Z 0418/0518 04006KT P6SM SKC
  FM051300 20003KT P6SM OVC015
S 19 nm 322' KTCM TAF KTCM 042100Z 0421/0603 35012KT 9999 SKC QNH3010INS
  BECMG 0506/0507 VRB06KT 9999 FEW100 SCT150 QNH3003INS
  BECMG 0520/0521 25012KT 9999 SKC QNH2999INS TX28/0521Z TN15/0512Z
SW 24 nm 301' KGRF TAF KGRF 042100Z 0421/0603 35006KT 9999 SKC QNH3010INS
  BECMG 0512/0513 27006KT 9999 SCT020 BKN040 QNH3003INS
  BECMG 0600/0601 25011KT 9999 SKC QNH2999INS TX26/0521Z TN17/0512Z
N 27 nm 607' KPAE KPAE 041729Z 0418/0518 35006KT P6SM OVC010
  FM042000 34005KT P6SM SKC
  FM051300 23004KT P6SM OVC015
SW 37 nm 207' KOLM KOLM 041729Z 0418/0518 01007KT P6SM FEW020
  FM050400 VRB03KT P6SM SKC
  FM051100 20004KT P6SM BKN004
N 55 nm 47' KNUW TAF KNUW 0423/0523 VRB06KT 9999 FEW040 QNH2997INS
  TEMPO 0423/0505 26008KT
  FM051100 22006KT 8000 BR BCFG FEW005 BKN015 BKN040 QNH2993INS
  TEMPO 0511/0517 VRB06KT 2400 BR BCFG BKN005 OVC015
  FM051800 25007KT 9999 SCT020 SCT050 BKN250 QNH2989INS T20/0423Z T10/0513Z FS30046
NW 62 nm 291' KCLM KCLM 041729Z 0418/0518 VRB04KT P6SM SKC
  FM041900 30010KT P6SM SKC
  FM050200 30010G16KT P6SM SKC
  FM051200 28006KT P6SM OVC015
SW 72 nm 17' KHQM KHQM 041729Z 0418/0518 20003KT 3SM BR BKN004
  FM041900 25012KT P6SM SCT025
  FM050600 25005KT 2SM BR OVC003
N 81 nm 171' KBLI KBLI 041729Z 0418/0518 20006KT P6SM SCT015
  FM042000 19010KT P6SM SKC
  FM051200 18010G16KT P6SM SCT015
E 85 nm 1248' KEAT TAF KEAT 041720Z 0418/0518 34008KT P6SM SKC
  FM041900 14004KT P6SM SKC
  FM050600 33007KT P6SM SKC
SE 89 nm 1098' KYKM TAF KYKM 041732Z 0418/0518 VRB04KT P6SM SKC
  FM050200 32006KT P6SM SKC
  FM051700 VRB04KT P6SM SKC

Shortcut to this page: http://wxbay.com.

Data may contain errors.